sensor_id;sensor_type;location;lat;lon;timestamp;P1;durP1;ratioP1;P2;durP2;ratioP2
56760;SDS011;42633;44.494;11.356;2022-11-30T00:01:08;51.25;;;37.92;;
56760;SDS011;42633;44.494;11.356;2022-11-30T00:04:14;54.85;;;38.72;;
56760;SDS011;42633;44.494;11.356;2022-11-30T00:07:21;52.20;;;37.03;;
56760;SDS011;42633;44.494;11.356;2022-11-30T00:10:34;52.88;;;38.72;;
56760;SDS011;42633;44.494;11.356;2022-11-30T00:13:43;56.70;;;38.22;;
56760;SDS011;42633;44.494;11.356;2022-11-30T00:16:48;57.08;;;39.17;;
56760;SDS011;42633;44.494;11.356;2022-11-30T00:19:54;54.55;;;37.75;;
56760;SDS011;42633;44.494;11.356;2022-11-30T00:23:06;52.42;;;38.08;;
56760;SDS011;42633;44.494;11.356;2022-11-30T00:26:16;55.08;;;38.38;;
56760;SDS011;42633;44.494;11.356;2022-11-30T00:29:27;55.78;;;38.72;;
56760;SDS011;42633;44.494;11.356;2022-11-30T00:32:33;60.35;;;40.90;;
56760;SDS011;42633;44.494;11.356;2022-11-30T00:35:54;57.45;;;39.92;;
56760;SDS011;42633;44.494;11.356;2022-11-30T00:39:00;63.28;;;40.55;;
56760;SDS011;42633;44.494;11.356;2022-11-30T00:42:07;57.22;;;39.05;;
56760;SDS011;42633;44.494;11.356;2022-11-30T00:45:12;55.50;;;38.83;;
56760;SDS011;42633;44.494;11.356;2022-11-30T00:48:20;56.92;;;39.70;;
56760;SDS011;42633;44.494;11.356;2022-11-30T00:51:24;57.03;;;40.13;;
56760;SDS011;42633;44.494;11.356;2022-11-30T00:54:28;58.38;;;40.42;;
56760;SDS011;42633;44.494;11.356;2022-11-30T00:57:36;57.58;;;41.00;;
56760;SDS011;42633;44.494;11.356;2022-11-30T01:00:40;59.63;;;40.30;;
56760;SDS011;42633;44.494;11.356;2022-11-30T01:03:45;65.95;;;41.15;;
56760;SDS011;42633;44.494;11.356;2022-11-30T01:06:51;57.78;;;40.80;;
56760;SDS011;42633;44.494;11.356;2022-11-30T01:09:59;58.92;;;40.25;;
56760;SDS011;42633;44.494;11.356;2022-11-30T01:13:04;61.70;;;41.97;;
56760;SDS011;42633;44.494;11.356;2022-11-30T01:16:17;59.80;;;40.65;;
56760;SDS011;42633;44.494;11.356;2022-11-30T01:19:28;61.58;;;41.33;;
56760;SDS011;42633;44.494;11.356;2022-11-30T01:22:33;71.32;;;46.25;;
56760;SDS011;42633;44.494;11.356;2022-11-30T01:25:38;65.93;;;44.40;;
56760;SDS011;42633;44.494;11.356;2022-11-30T01:28:43;64.40;;;42.83;;
56760;SDS011;42633;44.494;11.356;2022-11-30T01:31:51;67.35;;;45.58;;
56760;SDS011;42633;44.494;11.356;2022-11-30T01:34:55;63.38;;;43.88;;
56760;SDS011;42633;44.494;11.356;2022-11-30T01:38:08;66.05;;;45.92;;
56760;SDS011;42633;44.494;11.356;2022-11-30T01:41:14;65.53;;;44.97;;
56760;SDS011;42633;44.494;11.356;2022-11-30T01:47:33;64.88;;;43.65;;
56760;SDS011;42633;44.494;11.356;2022-11-30T01:50:42;67.30;;;44.88;;
56760;SDS011;42633;44.494;11.356;2022-11-30T01:53:47;67.18;;;43.88;;
56760;SDS011;42633;44.494;11.356;2022-11-30T01:57:10;65.53;;;45.63;;
56760;SDS011;42633;44.494;11.356;2022-11-30T02:00:29;65.72;;;44.33;;
56760;SDS011;42633;44.494;11.356;2022-11-30T02:03:36;65.88;;;45.17;;
56760;SDS011;42633;44.494;11.356;2022-11-30T02:06:52;70.07;;;47.72;;
56760;SDS011;42633;44.494;11.356;2022-11-30T02:09:58;68.77;;;45.47;;
56760;SDS011;42633;44.494;11.356;2022-11-30T02:16:53;63.80;;;44.72;;
56760;SDS011;42633;44.494;11.356;2022-11-30T02:27:47;72.05;;;46.60;;
56760;SDS011;42633;44.494;11.356;2022-11-30T02:31:36;68.90;;;46.45;;
56760;SDS011;42633;44.494;11.356;2022-11-30T02:34:53;71.70;;;46.03;;
56760;SDS011;42633;44.494;11.356;2022-11-30T02:38:01;70.63;;;48.20;;
56760;SDS011;42633;44.494;11.356;2022-11-30T02:41:17;71.70;;;49.53;;
56760;SDS011;42633;44.494;11.356;2022-11-30T02:44:23;67.35;;;45.75;;
56760;SDS011;42633;44.494;11.356;2022-11-30T02:47:45;67.47;;;46.75;;
56760;SDS011;42633;44.494;11.356;2022-11-30T02:50:59;70.03;;;47.63;;
56760;SDS011;42633;44.494;11.356;2022-11-30T02:54:07;71.90;;;47.47;;
56760;SDS011;42633;44.494;11.356;2022-11-30T02:57:15;72.80;;;45.87;;
56760;SDS011;42633;44.494;11.356;2022-11-30T03:00:21;69.95;;;47.20;;
56760;SDS011;42633;44.494;11.356;2022-11-30T03:03:26;74.65;;;49.20;;
56760;SDS011;42633;44.494;11.356;2022-11-30T03:06:30;75.28;;;48.28;;
56760;SDS011;42633;44.494;11.356;2022-11-30T03:09:34;74.00;;;47.88;;
56760;SDS011;42633;44.494;11.356;2022-11-30T03:15:51;68.05;;;46.25;;
56760;SDS011;42633;44.494;11.356;2022-11-30T03:18:58;71.38;;;46.05;;
56760;SDS011;42633;44.494;11.356;2022-11-30T03:22:02;76.72;;;46.90;;
56760;SDS011;42633;44.494;11.356;2022-11-30T03:25:09;72.22;;;47.65;;
56760;SDS011;42633;44.494;11.356;2022-11-30T03:28:14;68.80;;;47.30;;
56760;SDS011;42633;44.494;11.356;2022-11-30T03:31:18;74.25;;;48.35;;
56760;SDS011;42633;44.494;11.356;2022-11-30T03:34:25;70.88;;;45.72;;
56760;SDS011;42633;44.494;11.356;2022-11-30T03:37:32;74.63;;;49.80;;
56760;SDS011;42633;44.494;11.356;2022-11-30T03:40:37;73.75;;;47.83;;
56760;SDS011;42633;44.494;11.356;2022-11-30T03:43:42;75.43;;;47.67;;
56760;SDS011;42633;44.494;11.356;2022-11-30T03:46:48;71.85;;;46.13;;
56760;SDS011;42633;44.494;11.356;2022-11-30T03:49:55;78.78;;;48.08;;
56760;SDS011;42633;44.494;11.356;2022-11-30T03:53:03;69.28;;;45.63;;
56760;SDS011;42633;44.494;11.356;2022-11-30T03:56:08;72.13;;;46.35;;
56760;SDS011;42633;44.494;11.356;2022-11-30T03:59:15;66.60;;;46.05;;
56760;SDS011;42633;44.494;11.356;2022-11-30T04:02:20;66.40;;;46.28;;
56760;SDS011;42633;44.494;11.356;2022-11-30T04:05:33;70.22;;;47.13;;
56760;SDS011;42633;44.494;11.356;2022-11-30T04:08:38;67.18;;;45.90;;
56760;SDS011;42633;44.494;11.356;2022-11-30T04:11:43;67.70;;;46.38;;
56760;SDS011;42633;44.494;11.356;2022-11-30T04:14:53;68.40;;;45.55;;
56760;SDS011;42633;44.494;11.356;2022-11-30T04:18:00;68.93;;;46.15;;
56760;SDS011;42633;44.494;11.356;2022-11-30T04:21:08;72.50;;;46.65;;
56760;SDS011;42633;44.494;11.356;2022-11-30T04:24:15;72.32;;;46.50;;
56760;SDS011;42633;44.494;11.356;2022-11-30T04:27:20;68.40;;;46.10;;
56760;SDS011;42633;44.494;11.356;2022-11-30T04:30:29;73.40;;;45.47;;
56760;SDS011;42633;44.494;11.356;2022-11-30T04:33:38;71.60;;;46.65;;
56760;SDS011;42633;44.494;11.356;2022-11-30T04:36:43;74.50;;;45.22;;
56760;SDS011;42633;44.494;11.356;2022-11-30T04:39:47;67.30;;;44.15;;
56760;SDS011;42633;44.494;11.356;2022-11-30T04:42:52;63.22;;;42.53;;
56760;SDS011;42633;44.494;11.356;2022-11-30T04:45:57;65.00;;;42.65;;
56760;SDS011;42633;44.494;11.356;2022-11-30T04:49:02;64.07;;;43.22;;
56760;SDS011;42633;44.494;11.356;2022-11-30T04:52:06;61.55;;;39.97;;
56760;SDS011;42633;44.494;11.356;2022-11-30T04:55:14;60.92;;;42.13;;
56760;SDS011;42633;44.494;11.356;2022-11-30T04:58:22;64.13;;;40.78;;
56760;SDS011;42633;44.494;11.356;2022-11-30T05:01:30;62.08;;;40.40;;
56760;SDS011;42633;44.494;11.356;2022-11-30T05:04:35;65.25;;;42.00;;
56760;SDS011;42633;44.494;11.356;2022-11-30T05:07:40;64.38;;;41.08;;
56760;SDS011;42633;44.494;11.356;2022-11-30T05:10:45;62.38;;;40.38;;
56760;SDS011;42633;44.494;11.356;2022-11-30T05:13:54;60.58;;;39.65;;
56760;SDS011;42633;44.494;11.356;2022-11-30T05:16:59;64.97;;;42.05;;
56760;SDS011;42633;44.494;11.356;2022-11-30T05:20:06;61.00;;;39.60;;
56760;SDS011;42633;44.494;11.356;2022-11-30T05:23:13;59.80;;;40.83;;
56760;SDS011;42633;44.494;11.356;2022-11-30T05:26:21;62.47;;;41.42;;
56760;SDS011;42633;44.494;11.356;2022-11-30T05:29:27;64.18;;;41.80;;
56760;SDS011;42633;44.494;11.356;2022-11-30T05:32:35;64.60;;;41.92;;
56760;SDS011;42633;44.494;11.356;2022-11-30T05:35:39;72.05;;;46.28;;
56760;SDS011;42633;44.494;11.356;2022-11-30T05:38:45;63.15;;;41.78;;
56760;SDS011;42633;44.494;11.356;2022-11-30T05:41:51;68.70;;;45.95;;
56760;SDS011;42633;44.494;11.356;2022-11-30T05:44:55;70.80;;;44.78;;
56760;SDS011;42633;44.494;11.356;2022-11-30T05:48:00;66.35;;;43.40;;
56760;SDS011;42633;44.494;11.356;2022-11-30T05:51:08;66.82;;;44.40;;
56760;SDS011;42633;44.494;11.356;2022-11-30T05:54:18;59.45;;;42.30;;
56760;SDS011;42633;44.494;11.356;2022-11-30T05:57:22;64.60;;;41.92;;
56760;SDS011;42633;44.494;11.356;2022-11-30T06:00:26;64.40;;;42.65;;
56760;SDS011;42633;44.494;11.356;2022-11-30T06:03:32;63.60;;;40.92;;
56760;SDS011;42633;44.494;11.356;2022-11-30T06:06:49;57.55;;;38.17;;
56760;SDS011;42633;44.494;11.356;2022-11-30T06:09:55;62.20;;;41.67;;
56760;SDS011;42633;44.494;11.356;2022-11-30T06:13:05;62.03;;;40.38;;
56760;SDS011;42633;44.494;11.356;2022-11-30T06:16:20;59.72;;;40.90;;
56760;SDS011;42633;44.494;11.356;2022-11-30T06:24:43;60.55;;;39.05;;
56760;SDS011;42633;44.494;11.356;2022-11-30T06:27:49;60.65;;;40.28;;
56760;SDS011;42633;44.494;11.356;2022-11-30T06:30:57;63.60;;;39.35;;
56760;SDS011;42633;44.494;11.356;2022-11-30T06:34:02;58.35;;;36.90;;
56760;SDS011;42633;44.494;11.356;2022-11-30T06:41:01;56.72;;;37.25;;
56760;SDS011;42633;44.494;11.356;2022-11-30T06:49:22;56.13;;;35.25;;
56760;SDS011;42633;44.494;11.356;2022-11-30T06:52:56;50.38;;;33.67;;
56760;SDS011;42633;44.494;11.356;2022-11-30T07:11:47;40.92;;;25.70;;
56760;SDS011;42633;44.494;11.356;2022-11-30T07:18:05;44.42;;;25.52;;
56760;SDS011;42633;44.494;11.356;2022-11-30T07:24:47;46.88;;;28.02;;
56760;SDS011;42633;44.494;11.356;2022-11-30T07:49:11;48.45;;;27.92;;
56760;SDS011;42633;44.494;11.356;2022-11-30T07:52:20;45.25;;;28.40;;
56760;SDS011;42633;44.494;11.356;2022-11-30T08:14:40;50.08;;;30.38;;
56760;SDS011;42633;44.494;11.356;2022-11-30T08:23:17;51.75;;;32.22;;
56760;SDS011;42633;44.494;11.356;2022-11-30T09:24:23;53.05;;;34.92;;
56760;SDS011;42633;44.494;11.356;2022-11-30T10:32:28;74.63;;;50.05;;
56760;SDS011;42633;44.494;11.356;2022-11-30T10:40:47;60.55;;;39.97;;
56760;SDS011;42633;44.494;11.356;2022-11-30T11:58:59;42.15;;;27.77;;
56760;SDS011;42633;44.494;11.356;2022-11-30T12:45:52;41.70;;;23.65;;
56760;SDS011;42633;44.494;11.356;2022-11-30T13:05:49;42.67;;;25.25;;
56760;SDS011;42633;44.494;11.356;2022-11-30T13:17:49;46.60;;;23.45;;
56760;SDS011;42633;44.494;11.356;2022-11-30T13:24:38;33.78;;;21.42;;
56760;SDS011;42633;44.494;11.356;2022-11-30T13:28:02;37.78;;;22.85;;
56760;SDS011;42633;44.494;11.356;2022-11-30T13:32:11;44.75;;;22.92;;
56760;SDS011;42633;44.494;11.356;2022-11-30T13:45:41;30.60;;;20.25;;
56760;SDS011;42633;44.494;11.356;2022-11-30T13:53:24;35.65;;;21.15;;
56760;SDS011;42633;44.494;11.356;2022-11-30T13:57:00;37.03;;;22.85;;
56760;SDS011;42633;44.494;11.356;2022-11-30T14:11:36;36.40;;;21.38;;
56760;SDS011;42633;44.494;11.356;2022-11-30T14:14:45;37.55;;;22.40;;
56760;SDS011;42633;44.494;11.356;2022-11-30T14:17:50;36.83;;;22.08;;
56760;SDS011;42633;44.494;11.356;2022-11-30T14:21:00;35.35;;;20.98;;
56760;SDS011;42633;44.494;11.356;2022-11-30T14:24:19;35.00;;;19.92;;
56760;SDS011;42633;44.494;11.356;2022-11-30T14:27:26;31.30;;;19.50;;
56760;SDS011;42633;44.494;11.356;2022-11-30T14:31:15;28.50;;;18.58;;
56760;SDS011;42633;44.494;11.356;2022-11-30T14:34:37;32.38;;;19.20;;
56760;SDS011;42633;44.494;11.356;2022-11-30T14:37:53;32.95;;;19.80;;
56760;SDS011;42633;44.494;11.356;2022-11-30T14:41:19;32.22;;;20.50;;
56760;SDS011;42633;44.494;11.356;2022-11-30T14:44:38;38.55;;;22.17;;
56760;SDS011;42633;44.494;11.356;2022-11-30T14:47:44;36.50;;;21.88;;
56760;SDS011;42633;44.494;11.356;2022-11-30T14:51:00;37.97;;;21.88;;
56760;SDS011;42633;44.494;11.356;2022-11-30T14:54:28;31.52;;;19.73;;
56760;SDS011;42633;44.494;11.356;2022-11-30T14:57:52;36.95;;;21.67;;
56760;SDS011;42633;44.494;11.356;2022-11-30T15:12:06;34.38;;;21.08;;
56760;SDS011;42633;44.494;11.356;2022-11-30T15:15:20;35.22;;;21.48;;
56760;SDS011;42633;44.494;11.356;2022-11-30T15:18:27;32.40;;;20.67;;
56760;SDS011;42633;44.494;11.356;2022-11-30T15:22:11;35.72;;;21.98;;
56760;SDS011;42633;44.494;11.356;2022-11-30T15:25:32;35.15;;;20.92;;
56760;SDS011;42633;44.494;11.356;2022-11-30T15:32:52;33.40;;;22.15;;
56760;SDS011;42633;44.494;11.356;2022-11-30T15:36:09;36.70;;;22.48;;
56760;SDS011;42633;44.494;11.356;2022-11-30T15:39:27;32.47;;;21.50;;
56760;SDS011;42633;44.494;11.356;2022-11-30T15:42:38;43.08;;;22.63;;
56760;SDS011;42633;44.494;11.356;2022-11-30T15:57:09;41.22;;;22.02;;
56760;SDS011;42633;44.494;11.356;2022-11-30T16:00:19;35.55;;;21.60;;
56760;SDS011;42633;44.494;11.356;2022-11-30T16:03:35;38.15;;;22.65;;
56760;SDS011;42633;44.494;11.356;2022-11-30T16:07:01;42.75;;;24.77;;
56760;SDS011;42633;44.494;11.356;2022-11-30T16:13:45;39.88;;;24.02;;
56760;SDS011;42633;44.494;11.356;2022-11-30T16:17:13;40.10;;;23.55;;
56760;SDS011;42633;44.494;11.356;2022-11-30T16:20:19;38.75;;;21.95;;
56760;SDS011;42633;44.494;11.356;2022-11-30T16:23:28;35.33;;;21.50;;
56760;SDS011;42633;44.494;11.356;2022-11-30T16:26:37;40.42;;;22.65;;
56760;SDS011;42633;44.494;11.356;2022-11-30T16:29:43;41.67;;;22.98;;
56760;SDS011;42633;44.494;11.356;2022-11-30T16:32:51;44.60;;;23.83;;
56760;SDS011;42633;44.494;11.356;2022-11-30T16:35:57;45.13;;;24.92;;
56760;SDS011;42633;44.494;11.356;2022-11-30T16:39:08;35.85;;;21.42;;
56760;SDS011;42633;44.494;11.356;2022-11-30T16:46:31;40.67;;;22.45;;
56760;SDS011;42633;44.494;11.356;2022-11-30T17:00:07;39.58;;;23.27;;
56760;SDS011;42633;44.494;11.356;2022-11-30T17:03:17;51.10;;;24.58;;
56760;SDS011;42633;44.494;11.356;2022-11-30T17:06:30;39.25;;;23.95;;
56760;SDS011;42633;44.494;11.356;2022-11-30T17:09:38;45.25;;;24.13;;
56760;SDS011;42633;44.494;11.356;2022-11-30T17:12:43;40.83;;;23.70;;
56760;SDS011;42633;44.494;11.356;2022-11-30T17:25:59;44.58;;;26.67;;
56760;SDS011;42633;44.494;11.356;2022-11-30T17:32:42;41.63;;;25.50;;
56760;SDS011;42633;44.494;11.356;2022-11-30T17:35:50;49.90;;;27.80;;
56760;SDS011;42633;44.494;11.356;2022-11-30T17:39:02;53.33;;;27.88;;
56760;SDS011;42633;44.494;11.356;2022-11-30T17:42:08;52.40;;;28.42;;
56760;SDS011;42633;44.494;11.356;2022-11-30T17:45:13;50.90;;;29.75;;
56760;SDS011;42633;44.494;11.356;2022-11-30T17:48:27;55.75;;;27.95;;
56760;SDS011;42633;44.494;11.356;2022-11-30T17:51:34;51.40;;;28.35;;
56760;SDS011;42633;44.494;11.356;2022-11-30T17:54:39;47.65;;;28.13;;
56760;SDS011;42633;44.494;11.356;2022-11-30T17:57:52;47.53;;;27.40;;
56760;SDS011;42633;44.494;11.356;2022-11-30T18:01:00;57.33;;;29.20;;
56760;SDS011;42633;44.494;11.356;2022-11-30T18:04:07;56.80;;;30.08;;
56760;SDS011;42633;44.494;11.356;2022-11-30T18:07:17;52.92;;;29.95;;
56760;SDS011;42633;44.494;11.356;2022-11-30T18:10:23;51.05;;;31.00;;
56760;SDS011;42633;44.494;11.356;2022-11-30T18:13:28;57.35;;;29.38;;
56760;SDS011;42633;44.494;11.356;2022-11-30T18:16:35;49.28;;;28.88;;
56760;SDS011;42633;44.494;11.356;2022-11-30T18:19:39;48.13;;;27.20;;
56760;SDS011;42633;44.494;11.356;2022-11-30T18:22:45;52.10;;;28.80;;
56760;SDS011;42633;44.494;11.356;2022-11-30T18:25:51;52.28;;;28.92;;
56760;SDS011;42633;44.494;11.356;2022-11-30T18:28:56;55.92;;;30.98;;
56760;SDS011;42633;44.494;11.356;2022-11-30T18:32:01;51.47;;;28.65;;
56760;SDS011;42633;44.494;11.356;2022-11-30T18:35:08;49.00;;;28.58;;
56760;SDS011;42633;44.494;11.356;2022-11-30T18:38:13;53.03;;;28.75;;
56760;SDS011;42633;44.494;11.356;2022-11-30T18:41:18;54.72;;;31.48;;
56760;SDS011;42633;44.494;11.356;2022-11-30T18:44:25;49.92;;;29.83;;
56760;SDS011;42633;44.494;11.356;2022-11-30T18:47:42;51.45;;;30.27;;
56760;SDS011;42633;44.494;11.356;2022-11-30T18:50:48;54.67;;;29.98;;
56760;SDS011;42633;44.494;11.356;2022-11-30T18:53:59;50.65;;;29.88;;
56760;SDS011;42633;44.494;11.356;2022-11-30T18:57:10;56.75;;;31.05;;
56760;SDS011;42633;44.494;11.356;2022-11-30T19:00:15;52.25;;;30.88;;
56760;SDS011;42633;44.494;11.356;2022-11-30T19:03:23;55.27;;;29.67;;
56760;SDS011;42633;44.494;11.356;2022-11-30T19:06:29;58.80;;;29.30;;
56760;SDS011;42633;44.494;11.356;2022-11-30T19:09:36;48.40;;;27.95;;
56760;SDS011;42633;44.494;11.356;2022-11-30T19:12:41;51.20;;;29.15;;
56760;SDS011;42633;44.494;11.356;2022-11-30T19:15:46;62.17;;;33.38;;
56760;SDS011;42633;44.494;11.356;2022-11-30T19:18:52;54.85;;;31.17;;
56760;SDS011;42633;44.494;11.356;2022-11-30T19:21:56;44.95;;;28.00;;
56760;SDS011;42633;44.494;11.356;2022-11-30T19:25:01;53.05;;;29.02;;
56760;SDS011;42633;44.494;11.356;2022-11-30T19:28:07;46.80;;;26.85;;
56760;SDS011;42633;44.494;11.356;2022-11-30T19:31:15;42.22;;;25.17;;
56760;SDS011;42633;44.494;11.356;2022-11-30T19:34:24;44.88;;;26.65;;
56760;SDS011;42633;44.494;11.356;2022-11-30T19:37:42;43.55;;;25.70;;
56760;SDS011;42633;44.494;11.356;2022-11-30T19:40:51;41.20;;;24.25;;
56760;SDS011;42633;44.494;11.356;2022-11-30T19:43:56;46.08;;;26.70;;
56760;SDS011;42633;44.494;11.356;2022-11-30T19:47:02;44.13;;;25.37;;
56760;SDS011;42633;44.494;11.356;2022-11-30T19:53:37;41.38;;;24.52;;
56760;SDS011;42633;44.494;11.356;2022-11-30T19:56:43;39.05;;;23.48;;
56760;SDS011;42633;44.494;11.356;2022-11-30T19:59:48;38.72;;;22.92;;
56760;SDS011;42633;44.494;11.356;2022-11-30T20:07:12;41.72;;;23.83;;
56760;SDS011;42633;44.494;11.356;2022-11-30T20:10:17;40.45;;;25.08;;
56760;SDS011;42633;44.494;11.356;2022-11-30T20:13:22;45.55;;;25.70;;
56760;SDS011;42633;44.494;11.356;2022-11-30T20:16:27;47.08;;;26.75;;
56760;SDS011;42633;44.494;11.356;2022-11-30T20:23:05;45.97;;;26.48;;
56760;SDS011;42633;44.494;11.356;2022-11-30T20:26:11;39.72;;;24.23;;
56760;SDS011;42633;44.494;11.356;2022-11-30T20:29:16;40.83;;;25.55;;
56760;SDS011;42633;44.494;11.356;2022-11-30T20:32:22;44.35;;;26.17;;
56760;SDS011;42633;44.494;11.356;2022-11-30T20:35:27;44.63;;;26.67;;
56760;SDS011;42633;44.494;11.356;2022-11-30T20:38:33;48.05;;;27.20;;
56760;SDS011;42633;44.494;11.356;2022-11-30T20:41:38;45.75;;;25.58;;
56760;SDS011;42633;44.494;11.356;2022-11-30T20:44:43;46.80;;;27.70;;
56760;SDS011;42633;44.494;11.356;2022-11-30T20:51:06;44.20;;;26.77;;
56760;SDS011;42633;44.494;11.356;2022-11-30T20:54:13;40.22;;;24.65;;
56760;SDS011;42633;44.494;11.356;2022-11-30T20:57:19;44.33;;;26.50;;
56760;SDS011;42633;44.494;11.356;2022-11-30T21:00:24;45.50;;;27.17;;
56760;SDS011;42633;44.494;11.356;2022-11-30T21:03:32;47.33;;;28.08;;
56760;SDS011;42633;44.494;11.356;2022-11-30T21:06:38;43.63;;;26.00;;
56760;SDS011;42633;44.494;11.356;2022-11-30T21:09:44;41.97;;;26.58;;
56760;SDS011;42633;44.494;11.356;2022-11-30T21:12:53;43.85;;;26.73;;
56760;SDS011;42633;44.494;11.356;2022-11-30T21:16:00;44.92;;;27.67;;
56760;SDS011;42633;44.494;11.356;2022-11-30T21:19:13;47.38;;;27.50;;
56760;SDS011;42633;44.494;11.356;2022-11-30T21:27:49;42.03;;;24.20;;
56760;SDS011;42633;44.494;11.356;2022-11-30T21:30:56;45.63;;;26.73;;
56760;SDS011;42633;44.494;11.356;2022-11-30T21:41:55;45.95;;;26.50;;
56760;SDS011;42633;44.494;11.356;2022-11-30T21:45:07;46.33;;;25.95;;
56760;SDS011;42633;44.494;11.356;2022-11-30T21:48:24;45.38;;;24.98;;
56760;SDS011;42633;44.494;11.356;2022-11-30T21:51:32;40.85;;;25.42;;
56760;SDS011;42633;44.494;11.356;2022-11-30T21:55:42;44.67;;;25.75;;
56760;SDS011;42633;44.494;11.356;2022-11-30T21:59:13;43.42;;;26.27;;
56760;SDS011;42633;44.494;11.356;2022-11-30T22:02:21;41.70;;;26.42;;
56760;SDS011;42633;44.494;11.356;2022-11-30T22:05:27;47.10;;;28.30;;
56760;SDS011;42633;44.494;11.356;2022-11-30T22:08:32;43.53;;;27.85;;
56760;SDS011;42633;44.494;11.356;2022-11-30T22:16:49;48.35;;;28.38;;
56760;SDS011;42633;44.494;11.356;2022-11-30T22:19:54;47.58;;;27.98;;
56760;SDS011;42633;44.494;11.356;2022-11-30T22:22:59;48.85;;;28.52;;
56760;SDS011;42633;44.494;11.356;2022-11-30T22:26:25;48.85;;;27.63;;
56760;SDS011;42633;44.494;11.356;2022-11-30T22:29:31;50.10;;;27.77;;
56760;SDS011;42633;44.494;11.356;2022-11-30T22:32:36;49.50;;;27.73;;
56760;SDS011;42633;44.494;11.356;2022-11-30T22:35:40;50.20;;;28.50;;
56760;SDS011;42633;44.494;11.356;2022-11-30T22:38:53;52.03;;;27.95;;
56760;SDS011;42633;44.494;11.356;2022-11-30T22:42:04;45.38;;;26.70;;
56760;SDS011;42633;44.494;11.356;2022-11-30T22:45:09;47.15;;;28.17;;
56760;SDS011;42633;44.494;11.356;2022-11-30T22:48:22;47.63;;;27.70;;
56760;SDS011;42633;44.494;11.356;2022-11-30T22:51:27;48.63;;;29.30;;
56760;SDS011;42633;44.494;11.356;2022-11-30T22:54:35;45.42;;;27.42;;
56760;SDS011;42633;44.494;11.356;2022-11-30T22:57:40;47.33;;;27.10;;
56760;SDS011;42633;44.494;11.356;2022-11-30T23:00:47;47.20;;;27.92;;
56760;SDS011;42633;44.494;11.356;2022-11-30T23:03:52;43.28;;;27.10;;
56760;SDS011;42633;44.494;11.356;2022-11-30T23:06:59;50.15;;;27.23;;
56760;SDS011;42633;44.494;11.356;2022-11-30T23:10:04;46.97;;;26.42;;
56760;SDS011;42633;44.494;11.356;2022-11-30T23:13:12;48.38;;;27.92;;
56760;SDS011;42633;44.494;11.356;2022-11-30T23:16:17;46.28;;;27.83;;
56760;SDS011;42633;44.494;11.356;2022-11-30T23:19:24;45.33;;;26.67;;
56760;SDS011;42633;44.494;11.356;2022-11-30T23:22:29;45.92;;;26.58;;
56760;SDS011;42633;44.494;11.356;2022-11-30T23:25:34;48.22;;;29.95;;
56760;SDS011;42633;44.494;11.356;2022-11-30T23:28:39;45.40;;;27.48;;
56760;SDS011;42633;44.494;11.356;2022-11-30T23:31:53;42.38;;;26.30;;
56760;SDS011;42633;44.494;11.356;2022-11-30T23:34:58;45.85;;;28.30;;
56760;SDS011;42633;44.494;11.356;2022-11-30T23:38:04;47.80;;;27.85;;
56760;SDS011;42633;44.494;11.356;2022-11-30T23:41:09;44.88;;;26.60;;
56760;SDS011;42633;44.494;11.356;2022-11-30T23:44:15;42.83;;;26.52;;
56760;SDS011;42633;44.494;11.356;2022-11-30T23:47:19;46.13;;;27.42;;
56760;SDS011;42633;44.494;11.356;2022-11-30T23:50:24;45.95;;;27.02;;
56760;SDS011;42633;44.494;11.356;2022-11-30T23:53:29;39.60;;;25.08;;
56760;SDS011;42633;44.494;11.356;2022-11-30T23:56:34;42.22;;;25.40;;
56760;SDS011;42633;44.494;11.356;2022-11-30T23:59:40;41.22;;;24.90;;
